Notice: Undefined index: language in D:\xampp\htdocs\vam\index.php on line 25
Open Air Virtual

 METAR AND TAF INFORMATION
METAR FOR EGHH
ADDS - METARS form results

(1248 UTC 20 August 2019)
Data provider http://aviationweather.gov/metar/data/
 
METAR text: EGHH 201220Z 30010KT 9999 FEW025 SCT042 19/09 Q1024
Conditions at: EGHH (BOURNEMOUTH AIRP, GB) observed 1220 UTC 20 August 2019
Temperature: 19.0°C (66°F)
Dewpoint: 9.0°C (48°F) [RH = 52%]
Pressure (altimeter): 30.24 inches Hg (1024.0 mb)
Winds: from the WNW (300 degrees) at 12 MPH (10 knots; 5.1 m/s)
Visibility: 6 or more miles (10+ km)
Ceiling: at least 12,000 feet AGL
Clouds: few clouds at 2500 feet AGL
scattered clouds at 4200 feet AGL
Weather: no significant weather observed at this time

METAR text: EGHH 201150Z 28011KT 9999 FEW025 SCT042 19/09 Q1024
Conditions at: EGHH (BOURNEMOUTH AIRP, GB) observed 1150 UTC 20 August 2019
Temperature: 19.0°C (66°F)
Dewpoint: 9.0°C (48°F) [RH = 52%]
Pressure (altimeter): 30.24 inches Hg (1024.0 mb)
Winds: from the W (280 degrees) at 13 MPH (11 knots; 5.7 m/s)
Visibility: 6 or more miles (10+ km)
Ceiling: at least 12,000 feet AGL
Clouds: few clouds at 2500 feet AGL
scattered clouds at 4200 feet AGL
Weather: no significant weather observed at this time

Forecast for: EGHH (BOURNEMOUTH AIRP, GB)
Text: TAF EGHH 201101Z 2012/2021 26006KT 9999 FEW040
Forecast period: 1200 to 2100 UTC 20 August 2019
Forecast type: FROM: standard forecast or significant change
Winds: from the W (260 degrees) at 7 MPH (6 knots; 3.1 m/s)
Visibility: 6 or more miles 10+ km)
Ceiling: at least 12,000 feet AGL
Clouds: few clouds at 4000 feet AGL
Weather: no significant weather forecast for this period
Text: PROB30
Forecast period: 1200 to 1500 UTC 20 August 2019
Forecast type: TEMPORARY: The following changes expected for less than half the time period
Visibility: 6 miles (9 km)
Ceiling: unknown
Clouds: missing
Weather: -SHRA  (light rain showers)

 AIRPORT MAP

 RUNWAY INFORMATION
Runway 08 Runway length 7451 ft Runway width 151 ft
Runway elevation 38 ft Runway displaced threshold 1383 ft Runway heading 75
Runway 26 Runway length 7451 ft Runway width 151 ft
Runway elevation 31 ft Runway displaced threshold 0 ft Runway heading 255

 AIRPORT FREQUENCIES
Type APP Name APP Frequency 119.475 MHZ
Type ATIS Name ATIS Frequency 121.95 MHZ
Type GND Name GND Frequency 121.7 MHZ
Type TWR Name TWR Frequency 125.6 MHZ

 AIRPORT NEAR NAVIGATION AIDS



Powered by Virtual Airlines Manager [v2.6.2]